Time;durP1;ratioP1;P1;durP2;ratioP2;P2;SDS_P1;SDS_P2;PMS_P1;PMS_P2;Temp;Humidity;BMP_temperature;BMP_pressure;BME280_temperature;BME280_humidity;BME280_pressure;Samples;Min_cycle;Max_cycle;Signal;HPM_P1;HPM_P2
2021/08/16 00:00:53;;;;;;;11.05;2.90;;;;;;;;;;5031767;28;20026;-77
2021/08/16 00:03:19;;;;;;;7.97;2.42;;;;;;;;;;5031768;28;20056;-75
2021/08/16 00:05:45;;;;;;;8.70;3.58;;;;;;;;;;5032875;28;20053;-76
2021/08/16 00:08:11;;;;;;;8.95;2.58;;;;;;;;;;5033101;28;20437;-77
2021/08/16 00:10:38;;;;;;;8.07;2.72;;;;;;;;;;5033074;28;20044;-76
2021/08/16 00:13:04;;;;;;;9.43;3.08;;;;;;;;;;5033004;28;20057;-75
2021/08/16 00:15:30;;;;;;;9.88;2.80;;;;;;;;;;5031702;28;20393;-77
2021/08/16 00:17:58;;;;;;;7.22;2.55;;;;;;;;;;5032914;28;20032;-77
2021/08/16 00:20:24;;;;;;;7.22;2.55;;;;;;;;;;5031661;28;20037;-75
2021/08/16 00:22:50;;;;;;;11.38;2.80;;;;;;;;;;5035601;28;20038;-76
2021/08/16 00:25:16;;;;;;;5.55;2.33;;;;;;;;;;5037132;28;20017;-75
2021/08/16 00:27:42;;;;;;;8.85;2.78;;;;;;;;;;5036809;28;20040;-78
2021/08/16 00:30:08;;;;;;;6.85;2.85;;;;;;;;;;5037031;28;20072;-75
2021/08/16 00:32:34;;;;;;;6.88;2.33;;;;;;;;;;5036993;28;20474;-76
2021/08/16 00:35:00;;;;;;;8.45;2.40;;;;;;;;;;5036646;28;20033;-76
2021/08/16 00:37:26;;;;;;;11.45;3.03;;;;;;;;;;5036952;28;20036;-75
2021/08/16 00:39:52;;;;;;;9.25;2.85;;;;;;;;;;5036799;28;20029;-75
2021/08/16 00:42:18;;;;;;;9.15;2.55;;;;;;;;;;5036518;28;20037;-75
2021/08/16 00:44:44;;;;;;;5.63;2.63;;;;;;;;;;5036739;28;20026;-76
2021/08/16 00:47:10;;;;;;;8.57;2.53;;;;;;;;;;5036457;28;20022;-75
2021/08/16 00:49:36;;;;;;;9.70;2.58;;;;;;;;;;5036652;28;20148;-76
2021/08/16 00:52:03;;;;;;;9.45;2.60;;;;;;;;;;5036378;28;20033;-75
2021/08/16 00:54:29;;;;;;;6.68;2.72;;;;;;;;;;5036583;28;20029;-75
2021/08/16 00:56:55;;;;;;;6.70;2.70;;;;;;;;;;5036534;28;20029;-75
2021/08/16 00:59:22;;;;;;;10.23;2.70;;;;;;;;;;5036404;28;20053;-77
2021/08/16 01:01:48;;;;;;;7.22;2.40;;;;;;;;;;5036144;28;20084;-76
2021/08/16 01:04:14;;;;;;;8.02;2.95;;;;;;;;;;5036375;28;20033;-76
2021/08/16 01:06:40;;;;;;;8.20;2.70;;;;;;;;;;5036081;28;20412;-75
2021/08/16 01:09:06;;;;;;;4.20;2.00;;;;;;;;;;5036076;28;20022;-76
2021/08/16 01:11:34;;;;;;;6.50;2.20;;;;;;;;;;5036235;28;20049;-76
2021/08/16 01:14:00;;;;;;;8.88;2.70;;;;;;;;;;5036265;28;20032;-75
2021/08/16 01:16:26;;;;;;;6.68;2.17;;;;;;;;;;5036166;28;20030;-76
2021/08/16 01:18:52;;;;;;;8.48;2.47;;;;;;;;;;5035876;28;20076;-76
2021/08/16 01:21:19;;;;;;;6.22;2.67;;;;;;;;;;5036049;28;20025;-76
2021/08/16 01:23:45;;;;;;;7.35;2.65;;;;;;;;;;5036066;28;20096;-76
2021/08/16 01:26:12;;;;;;;7.88;2.55;;;;;;;;;;5034492;28;20021;-75
2021/08/16 01:28:38;;;;;;;7.95;2.58;;;;;;;;;;5035945;28;20029;-75
2021/08/16 01:31:06;;;;;;;6.32;2.60;;;;;;;;;;5035652;28;20036;-75
2021/08/16 01:33:32;;;;;;;7.70;2.70;;;;;;;;;;5035115;28;20112;-74
2021/08/16 01:35:58;;;;;;;6.75;2.78;;;;;;;;;;5034294;28;20086;-76
2021/08/16 01:38:33;;;;;;;8.88;2.88;;;;;;;;;;5035491;28;20037;-76
2021/08/16 01:40:59;;;;;;;8.00;2.75;;;;;;;;;;5035424;28;20489;-76
2021/08/16 01:43:25;;;;;;;6.85;2.60;;;;;;;;;;5035687;28;20493;-74
2021/08/16 01:45:52;;;;;;;9.68;2.80;;;;;;;;;;5035346;28;20486;-75
2021/08/16 01:48:18;;;;;;;6.75;2.50;;;;;;;;;;5035393;28;20029;-76
2021/08/16 01:50:44;;;;;;;5.15;2.40;;;;;;;;;;5035268;28;20033;-76
2021/08/16 01:53:12;;;;;;;6.65;2.22;;;;;;;;;;5033940;28;20091;-75
2021/08/16 01:55:38;;;;;;;7.65;2.47;;;;;;;;;;5033936;28;20029;-77
2021/08/16 01:58:04;;;;;;;6.78;2.60;;;;;;;;;;5035698;28;20030;-76
2021/08/16 02:00:30;;;;;;;5.95;2.55;;;;;;;;;;5035273;28;20036;-75
2021/08/16 02:02:56;;;;;;;6.78;2.50;;;;;;;;;;5034959;28;20420;-76
2021/08/16 02:05:23;;;;;;;4.30;2.05;;;;;;;;;;5034977;28;20029;-74
2021/08/16 02:07:49;;;;;;;6.75;2.35;;;;;;;;;;5034592;28;20103;-75
2021/08/16 02:10:15;;;;;;;5.53;2.47;;;;;;;;;;5035188;28;20112;-76
2021/08/16 02:12:41;;;;;;;4.63;2.10;;;;;;;;;;5033567;28;20475;-75
2021/08/16 02:15:08;;;;;;;10.00;3.10;;;;;;;;;;5035074;28;20470;-75
2021/08/16 02:17:34;;;;;;;7.05;2.13;;;;;;;;;;5035267;28;20356;-76
2021/08/16 02:20:00;;;;;;;6.65;2.50;;;;;;;;;;5034626;28;20140;-76
2021/08/16 02:22:26;;;;;;;4.07;2.17;;;;;;;;;;5034910;28;20018;-75
2021/08/16 02:24:52;;;;;;;5.97;2.65;;;;;;;;;;5034567;28;20371;-77
2021/08/16 02:27:18;;;;;;;8.02;2.60;;;;;;;;;;5034583;28;20067;-77
2021/08/16 02:29:45;;;;;;;7.30;2.45;;;;;;;;;;5034526;28;20029;-74
2021/08/16 02:32:11;;;;;;;5.85;2.20;;;;;;;;;;5034519;28;20026;-74
2021/08/16 02:34:37;;;;;;;6.30;2.20;;;;;;;;;;5034705;28;20033;-75
2021/08/16 02:37:03;;;;;;;6.15;2.65;;;;;;;;;;5034373;28;20483;-77
2021/08/16 02:39:30;;;;;;;5.15;2.28;;;;;;;;;;5034271;28;20539;-76
2021/08/16 02:41:56;;;;;;;6.68;2.28;;;;;;;;;;5034301;28;20026;-76
2021/08/16 02:44:22;;;;;;;6.43;2.38;;;;;;;;;;5034069;28;20032;-75
2021/08/16 02:46:48;;;;;;;6.22;2.25;;;;;;;;;;5034242;28;20053;-76
2021/08/16 02:49:14;;;;;;;5.72;2.38;;;;;;;;;;5032910;28;20029;-77
2021/08/16 02:51:40;;;;;;;4.72;2.08;;;;;;;;;;5032872;28;20070;-77
2021/08/16 02:54:06;;;;;;;4.75;2.20;;;;;;;;;;5034360;28;20029;-76
2021/08/16 02:56:32;;;;;;;4.45;2.10;;;;;;;;;;5034024;28;20029;-77
2021/08/16 02:58:58;;;;;;;4.30;2.60;;;;;;;;;;5034037;28;20034;-75
2021/08/16 03:01:24;;;;;;;6.10;2.88;;;;;;;;;;5033927;28;20397;-75
2021/08/16 03:03:50;;;;;;;5.03;2.30;;;;;;;;;;5033862;28;20032;-75
2021/08/16 03:06:16;;;;;;;5.50;2.03;;;;;;;;;;5033689;28;20048;-76
2021/08/16 03:08:42;;;;;;;5.55;2.30;;;;;;;;;;5033837;28;20025;-77
2021/08/16 03:11:08;;;;;;;4.05;2.10;;;;;;;;;;5034054;28;20104;-74
2021/08/16 03:13:34;;;;;;;5.40;2.60;;;;;;;;;;5034023;28;20044;-75
2021/08/16 03:16:00;;;;;;;4.82;2.05;;;;;;;;;;5033985;28;20034;-77
2021/08/16 03:18:27;;;;;;;5.20;2.13;;;;;;;;;;5033693;28;20048;-75
2021/08/16 03:20:53;;;;;;;5.35;2.60;;;;;;;;;;5033536;28;20029;-75
2021/08/16 03:23:20;;;;;;;5.25;2.38;;;;;;;;;;5033870;28;20381;-75
2021/08/16 03:25:46;;;;;;;4.13;2.13;;;;;;;;;;5033555;28;20029;-77
2021/08/16 03:28:12;;;;;;;5.40;1.92;;;;;;;;;;5032256;28;20021;-78
2021/08/16 03:30:38;;;;;;;7.03;2.30;;;;;;;;;;5032200;28;20033;-75
2021/08/16 03:33:04;;;;;;;4.38;2.10;;;;;;;;;;5033705;28;20363;-75
2021/08/16 03:35:30;;;;;;;5.20;2.42;;;;;;;;;;5033417;28;20032;-76
2021/08/16 03:37:56;;;;;;;8.10;2.25;;;;;;;;;;5033662;28;20030;-75
2021/08/16 03:40:22;;;;;;;5.07;2.63;;;;;;;;;;5033292;28;20048;-74
2021/08/16 03:42:48;;;;;;;4.15;2.30;;;;;;;;;;5033341;28;20045;-78
2021/08/16 03:45:24;;;;;;;5.45;2.50;;;;;;;;;;5033577;28;20079;-75
2021/08/16 03:47:50;;;;;;;4.07;2.22;;;;;;;;;;5031777;28;20030;-77
2021/08/16 03:50:16;;;;;;;4.35;2.10;;;;;;;;;;5033216;28;20022;-76
2021/08/16 03:52:42;;;;;;;3.05;1.92;;;;;;;;;;5033475;28;20366;-76
2021/08/16 03:55:09;;;;;;;4.88;2.40;;;;;;;;;;5032940;28;20029;-74
2021/08/16 03:57:35;;;;;;;4.07;2.15;;;;;;;;;;5031643;28;20481;-75
2021/08/16 04:00:01;;;;;;;7.13;2.67;;;;;;;;;;5033076;28;20022;-74
2021/08/16 04:02:27;;;;;;;4.82;2.38;;;;;;;;;;5033090;28;20537;-76
2021/08/16 04:10:39;;;;;;;7.45;2.40;;;;;;;;;;4497085;28;20087;-75
2021/08/16 04:13:05;;;;;;;5.60;2.40;;;;;;;;;;5015120;28;20041;-75
2021/08/16 04:15:31;;;;;;;4.72;2.65;;;;;;;;;;5033052;28;20477;-76
2021/08/16 04:17:57;;;;;;;3.85;2.42;;;;;;;;;;5033044;28;20132;-75
2021/08/16 04:20:23;;;;;;;7.72;2.58;;;;;;;;;;5032956;28;20030;-75
2021/08/16 04:22:49;;;;;;;3.88;2.30;;;;;;;;;;5032985;28;20465;-75
2021/08/16 04:25:16;;;;;;;7.32;3.05;;;;;;;;;;5033017;28;20434;-77
2021/08/16 04:27:43;;;;;;;6.10;2.45;;;;;;;;;;5033235;28;20072;-75
2021/08/16 04:30:10;;;;;;;5.28;2.67;;;;;;;;;;5032927;28;20440;-74
2021/08/16 04:32:37;;;;;;;5.63;2.72;;;;;;;;;;5032904;28;20025;-75
2021/08/16 04:35:04;;;;;;;4.20;2.40;;;;;;;;;;5032862;28;20040;-73
2021/08/16 04:37:30;;;;;;;4.85;2.80;;;;;;;;;;5033176;28;20021;-76
2021/08/16 04:39:56;;;;;;;4.75;2.70;;;;;;;;;;5033049;28;20030;-74
2021/08/16 04:42:22;;;;;;;4.90;2.58;;;;;;;;;;5032804;28;20022;-74
2021/08/16 04:44:48;;;;;;;4.90;2.47;;;;;;;;;;5033093;28;20053;-75
2021/08/16 04:47:14;;;;;;;4.82;2.75;;;;;;;;;;5033086;28;20028;-76
2021/08/16 04:49:40;;;;;;;6.90;2.63;;;;;;;;;;5032992;28;20030;-74
2021/08/16 04:52:06;;;;;;;6.47;2.88;;;;;;;;;;5032747;28;20500;-75
2021/08/16 04:54:32;;;;;;;5.43;2.50;;;;;;;;;;5032719;28;20025;-74
2021/08/16 04:56:58;;;;;;;5.95;2.95;;;;;;;;;;5032669;28;20029;-74
2021/08/16 04:59:24;;;;;;;5.35;2.97;;;;;;;;;;5032591;28;20488;-75
2021/08/16 05:01:50;;;;;;;5.95;3.15;;;;;;;;;;5032610;28;20018;-76
2021/08/16 05:04:16;;;;;;;4.95;2.92;;;;;;;;;;5032902;28;20446;-74
2021/08/16 05:06:43;;;;;;;5.28;3.13;;;;;;;;;;5032568;28;20025;-75
2021/08/16 05:09:09;;;;;;;5.20;3.25;;;;;;;;;;5035061;28;20025;-75
2021/08/16 05:11:36;;;;;;;7.57;3.35;;;;;;;;;;5035911;28;20049;-76
2021/08/16 05:14:02;;;;;;;8.88;3.30;;;;;;;;;;5036002;28;20052;-76
2021/08/16 05:16:28;;;;;;;7.05;3.47;;;;;;;;;;5036251;28;20469;-75
2021/08/16 05:18:54;;;;;;;7.40;3.10;;;;;;;;;;5036175;28;20034;-75
2021/08/16 05:21:21;;;;;;;4.97;2.88;;;;;;;;;;5035799;28;20025;-75
2021/08/16 05:23:47;;;;;;;5.35;3.20;;;;;;;;;;5035875;28;20026;-75
2021/08/16 05:26:13;;;;;;;5.00;2.92;;;;;;;;;;5035821;28;20096;-76
2021/08/16 05:28:39;;;;;;;9.50;3.58;;;;;;;;;;5035980;28;20022;-74
2021/08/16 05:31:05;;;;;;;8.20;3.47;;;;;;;;;;5035683;28;20029;-75
2021/08/16 05:33:31;;;;;;;7.10;3.20;;;;;;;;;;5035926;28;20034;-77
2021/08/16 05:35:57;;;;;;;6.50;3.60;;;;;;;;;;5036157;28;20021;-76
2021/08/16 05:38:23;;;;;;;7.53;3.40;;;;;;;;;;5035561;28;20112;-75
2021/08/16 05:40:50;;;;;;;6.93;3.47;;;;;;;;;;5035491;28;20524;-76
2021/08/16 05:43:16;;;;;;;5.40;3.33;;;;;;;;;;5035762;28;20029;-76
2021/08/16 05:45:42;;;;;;;5.07;3.38;;;;;;;;;;5035448;28;20053;-74
2021/08/16 05:48:08;;;;;;;9.80;4.18;;;;;;;;;;5035724;28;20032;-75
2021/08/16 05:50:34;;;;;;;8.85;3.40;;;;;;;;;;5035353;28;20032;-75
2021/08/16 05:53:00;;;;;;;7.88;3.50;;;;;;;;;;5035280;28;20485;-74
2021/08/16 05:55:26;;;;;;;7.57;3.60;;;;;;;;;;5017528;28;20056;-75
2021/08/16 05:57:52;;;;;;;7.68;3.33;;;;;;;;;;5035237;28;20034;-76
2021/08/16 06:00:19;;;;;;;8.82;3.53;;;;;;;;;;5017372;28;20455;-76
2021/08/16 06:02:45;;;;;;;6.30;3.03;;;;;;;;;;5035474;28;20025;-75
2021/08/16 06:05:11;;;;;;;10.93;3.47;;;;;;;;;;5035376;28;20430;-74
2021/08/16 06:07:37;;;;;;;5.82;3.30;;;;;;;;;;5035228;28;20061;-75
2021/08/16 06:10:04;;;;;;;8.38;3.40;;;;;;;;;;5034882;28;20053;-74
2021/08/16 06:12:30;;;;;;;6.82;2.92;;;;;;;;;;5034936;28;20033;-74
2021/08/16 06:14:56;;;;;;;6.47;3.00;;;;;;;;;;5035174;28;20025;-77
2021/08/16 06:17:22;;;;;;;13.27;3.65;;;;;;;;;;5035174;28;20091;-76
2021/08/16 06:19:48;;;;;;;9.02;3.00;;;;;;;;;;5034275;28;20028;-76
2021/08/16 06:22:14;;;;;;;9.43;3.20;;;;;;;;;;5035036;28;20029;-76
2021/08/16 06:24:40;;;;;;;8.77;3.70;;;;;;;;;;5034681;28;20029;-74
2021/08/16 06:27:06;;;;;;;10.50;3.17;;;;;;;;;;5034673;28;20499;-77
2021/08/16 06:29:32;;;;;;;6.40;3.00;;;;;;;;;;5034632;28;20029;-74
2021/08/16 06:31:58;;;;;;;7.25;3.08;;;;;;;;;;5034846;28;20053;-74
2021/08/16 06:34:24;;;;;;;8.90;2.67;;;;;;;;;;5034772;28;20372;-77
2021/08/16 06:36:53;;;;;;;9.43;2.92;;;;;;;;;;5034441;28;20032;-74
2021/08/16 06:39:20;;;;;;;10.27;2.70;;;;;;;;;;5034979;28;20071;-76
2021/08/16 06:41:47;;;;;;;7.65;3.03;;;;;;;;;;5034313;28;20424;-75
2021/08/16 06:44:13;;;;;;;9.40;3.08;;;;;;;;;;5034614;28;20025;-75
2021/08/16 06:46:40;;;;;;;7.88;2.55;;;;;;;;;;5034304;28;20057;-76
2021/08/16 06:49:06;;;;;;;7.47;3.50;;;;;;;;;;5034528;28;20025;-76
2021/08/16 06:51:32;;;;;;;8.27;2.78;;;;;;;;;;5034251;28;20029;-75
2021/08/16 06:53:58;;;;;;;6.78;2.30;;;;;;;;;;5034161;28;20474;-76
2021/08/16 06:56:24;;;;;;;11.30;3.00;;;;;;;;;;5034111;28;20025;-74
2021/08/16 06:58:50;;;;;;;8.05;2.78;;;;;;;;;;5034355;28;20021;-74
2021/08/16 07:01:20;;;;;;;9.32;2.88;;;;;;;;;;5033927;28;20032;-75
2021/08/16 07:03:46;;;;;;;6.22;2.58;;;;;;;;;;5016280;28;20022;-76
2021/08/16 07:06:12;;;;;;;7.55;2.80;;;;;;;;;;5033909;28;20018;-74
2021/08/16 07:08:38;;;;;;;7.63;2.72;;;;;;;;;;5016116;28;20030;-75
2021/08/16 07:11:04;;;;;;;11.82;2.78;;;;;;;;;;5012514;28;20149;-74
2021/08/16 07:13:31;;;;;;;7.15;2.80;;;;;;;;;;5013355;28;20487;-75
2021/08/16 07:15:57;;;;;;;6.50;3.03;;;;;;;;;;5033755;28;20477;-75
2021/08/16 07:18:23;;;;;;;6.10;2.47;;;;;;;;;;5033714;28;20025;-74
2021/08/16 07:20:49;;;;;;;8.25;2.30;;;;;;;;;;5015830;28;20072;-75
2021/08/16 07:23:15;;;;;;;6.90;2.55;;;;;;;;;;5033654;28;20528;-77
2021/08/16 07:25:41;;;;;;;5.90;2.58;;;;;;;;;;5033662;28;20474;-76
2021/08/16 07:28:08;;;;;;;11.35;3.33;;;;;;;;;;5033556;28;20025;-77
2021/08/16 07:30:34;;;;;;;7.63;2.88;;;;;;;;;;5033056;28;20029;-74
2021/08/16 07:33:00;;;;;;;8.75;3.15;;;;;;;;;;5033520;28;20108;-77
2021/08/16 07:35:26;;;;;;;5.45;2.55;;;;;;;;;;5034008;28;20500;-74
2021/08/16 07:37:52;;;;;;;7.78;3.15;;;;;;;;;;5033447;28;20497;-74
2021/08/16 07:40:20;;;;;;;5.93;2.50;;;;;;;;;;5033603;28;20128;-75
2021/08/16 07:42:47;;;;;;;8.00;2.80;;;;;;;;;;5015619;28;20036;-74
2021/08/16 07:45:13;;;;;;;7.75;2.47;;;;;;;;;;5033311;28;20025;-75
2021/08/16 07:47:39;;;;;;;7.70;2.72;;;;;;;;;;5033540;28;20485;-75
2021/08/16 07:50:09;;;;;;;8.65;2.78;;;;;;;;;;5033589;28;20436;-77
2021/08/16 07:52:36;;;;;;;9.77;2.47;;;;;;;;;;5033593;28;20480;-76
2021/08/16 07:55:02;;;;;;;8.23;2.42;;;;;;;;;;5033255;28;20486;-75
2021/08/16 07:57:29;;;;;;;8.07;2.50;;;;;;;;;;5033232;28;20156;-75
2021/08/16 07:59:56;;;;;;;9.80;2.88;;;;;;;;;;5015432;28;20044;-75
2021/08/16 08:02:22;;;;;;;5.32;2.30;;;;;;;;;;5033456;28;20017;-75
2021/08/16 08:04:48;;;;;;;8.75;2.55;;;;;;;;;;5033176;28;20029;-75
2021/08/16 08:07:14;;;;;;;8.65;2.83;;;;;;;;;;5033308;28;20017;-75
2021/08/16 08:09:40;;;;;;;7.40;2.75;;;;;;;;;;5033118;28;20477;-74
2021/08/16 08:12:06;;;;;;;6.65;2.60;;;;;;;;;;5033387;28;20072;-74
2021/08/16 08:14:33;;;;;;;7.22;2.50;;;;;;;;;;5033610;28;20022;-76
2021/08/16 08:16:59;;;;;;;7.45;2.67;;;;;;;;;;5033354;28;20018;-75
2021/08/16 08:19:25;;;;;;;7.75;2.97;;;;;;;;;;5033568;28;20022;-76
2021/08/16 08:21:51;;;;;;;4.30;2.15;;;;;;;;;;5015202;28;20025;-76
2021/08/16 08:24:17;;;;;;;7.85;2.25;;;;;;;;;;5033018;28;20030;-75
2021/08/16 08:26:43;;;;;;;7.22;2.47;;;;;;;;;;5032920;28;20022;-74
2021/08/16 08:29:09;;;;;;;9.32;2.47;;;;;;;;;;5032947;28;20030;-74
2021/08/16 08:31:41;;;;;;;6.32;2.50;;;;;;;;;;5032882;28;20026;-76
2021/08/16 08:34:07;;;;;;;5.60;2.15;;;;;;;;;;5033543;28;20432;-76
2021/08/16 08:36:33;;;;;;;5.43;2.60;;;;;;;;;;5033172;28;20489;-75
2021/08/16 08:38:59;;;;;;;6.57;2.55;;;;;;;;;;5032884;28;20033;-75
2021/08/16 08:41:30;;;;;;;5.57;2.20;;;;;;;;;;5033052;28;20540;-76
2021/08/16 08:43:56;;;;;;;7.00;2.10;;;;;;;;;;5036661;28;20071;-77
2021/08/16 08:46:22;;;;;;;7.78;2.70;;;;;;;;;;5036593;28;20017;-76
2021/08/16 08:48:48;;;;;;;5.82;2.38;;;;;;;;;;5036502;28;20037;-75
2021/08/16 08:51:14;;;;;;;5.45;2.05;;;;;;;;;;5018718;28;20025;-75
2021/08/16 08:53:41;;;;;;;7.85;2.67;;;;;;;;;;5036465;28;20393;-74
2021/08/16 08:56:09;;;;;;;6.30;2.45;;;;;;;;;;5036383;28;20022;-75
2021/08/16 08:58:35;;;;;;;6.35;2.13;;;;;;;;;;5036651;28;20057;-76
2021/08/16 09:01:01;;;;;;;5.85;2.35;;;;;;;;;;5036174;28;20512;-75
2021/08/16 09:03:27;;;;;;;8.27;2.15;;;;;;;;;;5036527;28;20025;-77
2021/08/16 09:05:54;;;;;;;7.05;2.00;;;;;;;;;;5036181;28;20029;-75
2021/08/16 09:08:23;;;;;;;8.02;2.72;;;;;;;;;;5036073;28;20022;-74
2021/08/16 09:10:50;;;;;;;3.60;2.03;;;;;;;;;;5035961;28;20049;-75
2021/08/16 09:13:23;;;;;;;5.45;2.08;;;;;;;;;;5036036;28;20032;-75
2021/08/16 09:15:49;;;;;;;2.58;1.92;;;;;;;;;;5036333;28;20041;-75
2021/08/16 09:18:28;;;;;;;5.32;2.17;;;;;;;;;;5035940;28;20022;-76
2021/08/16 09:20:54;;;;;;;4.57;2.08;;;;;;;;;;5035773;28;20025;-74
2021/08/16 09:23:20;;;;;;;6.32;2.72;;;;;;;;;;5036151;28;20021;-76
2021/08/16 09:25:53;;;;;;;5.10;2.00;;;;;;;;;;5034687;28;20284;-74
2021/08/16 09:28:27;;;;;;;4.03;2.20;;;;;;;;;;5035472;28;20389;-74
2021/08/16 09:30:54;;;;;;;5.85;2.15;;;;;;;;;;5035044;28;20029;-75
2021/08/16 09:33:21;;;;;;;5.20;2.38;;;;;;;;;;5035691;28;20030;-77
2021/08/16 09:36:05;;;;;;;9.80;2.53;;;;;;;;;;5035665;28;20037;-76
2021/08/16 09:38:32;;;;;;;4.63;2.13;;;;;;;;;;5035888;28;20026;-74
2021/08/16 09:40:58;;;;;;;4.18;1.85;;;;;;;;;;5035524;28;20025;-75
2021/08/16 09:43:25;;;;;;;6.65;2.60;;;;;;;;;;5017782;28;20022;-75
2021/08/16 09:45:52;;;;;;;5.45;2.58;;;;;;;;;;5026609;28;20036;-75
2021/08/16 09:48:21;;;;;;;6.32;2.67;;;;;;;;;;5035455;28;20021;-76
2021/08/16 09:50:48;;;;;;;;;;;;;;;;;;5036413;28;20025;-75
2021/08/16 09:53:16;;;;;;;4.45;2.40;;;;;;;;;;5034737;28;19952;-75
2021/08/16 09:55:43;;;;;;;5.55;2.28;;;;;;;;;;5035093;28;20088;-75
2021/08/16 09:58:10;;;;;;;6.30;2.65;;;;;;;;;;5035289;28;20033;-76
2021/08/16 10:00:40;;;;;;;6.63;2.58;;;;;;;;;;5035113;28;20032;-74
2021/08/16 10:03:07;;;;;;;5.53;2.50;;;;;;;;;;5035106;28;20100;-75
2021/08/16 10:05:36;;;;;;;5.95;2.60;;;;;;;;;;5035082;28;20018;-75
2021/08/16 10:08:02;;;;;;;8.10;2.35;;;;;;;;;;5017231;28;20033;-75
2021/08/16 10:10:28;;;;;;;5.93;2.45;;;;;;;;;;5017076;28;20144;-73
2021/08/16 10:12:54;;;;;;;6.07;2.63;;;;;;;;;;5017213;28;20029;-74
2021/08/16 10:15:20;;;;;;;5.53;2.53;;;;;;;;;;5034895;28;20025;-75
2021/08/16 10:17:47;;;;;;;6.57;2.60;;;;;;;;;;5035413;28;20040;-76
2021/08/16 10:20:14;;;;;;;7.43;2.67;;;;;;;;;;5034642;28;20108;-74
2021/08/16 10:22:40;;;;;;;5.82;2.63;;;;;;;;;;5034773;28;20031;-75
2021/08/16 10:25:10;;;;;;;6.70;2.22;;;;;;;;;;5034718;28;20021;-76
2021/08/16 10:27:36;;;;;;;5.60;2.50;;;;;;;;;;5034973;28;20022;-74
2021/08/16 10:30:10;;;;;;;4.28;2.20;;;;;;;;;;5035159;28;20071;-74
2021/08/16 10:32:36;;;;;;;8.85;3.20;;;;;;;;;;5034873;28;20036;-75
2021/08/16 10:35:06;;;;;;;6.18;2.60;;;;;;;;;;5035089;28;20075;-74
2021/08/16 10:37:40;;;;;;;6.32;2.75;;;;;;;;;;5016422;28;20025;-75
2021/08/16 10:40:20;;;;;;;5.40;2.47;;;;;;;;;;5034645;28;20109;-73
2021/08/16 10:42:46;;;;;;;6.15;2.63;;;;;;;;;;5034772;28;20029;-75
2021/08/16 10:45:23;;;;;;;6.00;2.95;;;;;;;;;;5016617;28;20068;-75
2021/08/16 10:47:58;;;;;;;8.15;2.95;;;;;;;;;;5034636;28;20033;-75
2021/08/16 10:50:24;;;;;;;6.18;2.50;;;;;;;;;;5034282;28;20026;-74
2021/08/16 10:52:59;;;;;;;7.32;2.80;;;;;;;;;;5034144;28;20025;-75
2021/08/16 10:55:25;;;;;;;7.43;3.38;;;;;;;;;;5034431;28;20049;-74
2021/08/16 10:57:52;;;;;;;5.53;2.58;;;;;;;;;;5034075;28;20104;-75
2021/08/16 11:00:18;;;;;;;5.32;2.60;;;;;;;;;;5033967;28;20025;-75
2021/08/16 11:02:44;;;;;;;4.70;2.55;;;;;;;;;;5034270;28;20021;-74
2021/08/16 11:05:11;;;;;;;6.18;2.83;;;;;;;;;;5033913;28;20022;-74
2021/08/16 11:07:37;;;;;;;6.43;2.95;;;;;;;;;;5033940;28;20539;-76
2021/08/16 11:10:05;;;;;;;6.60;2.97;;;;;;;;;;5033691;28;20132;-74
2021/08/16 11:12:35;;;;;;;7.88;2.55;;;;;;;;;;5033836;28;20043;-74
2021/08/16 11:15:01;;;;;;;4.80;2.70;;;;;;;;;;5034063;28;20515;-74
2021/08/16 11:17:29;;;;;;;7.05;2.88;;;;;;;;;;5033789;28;20033;-75
2021/08/16 11:19:57;;;;;;;8.43;2.92;;;;;;;;;;5033670;28;20113;-73
2021/08/16 11:22:23;;;;;;;7.95;2.70;;;;;;;;;;5034194;28;20026;-75
2021/08/16 11:24:49;;;;;;;7.20;2.63;;;;;;;;;;5015982;28;20027;-73
2021/08/16 11:27:19;;;;;;;7.72;3.40;;;;;;;;;;5033920;28;20021;-76
2021/08/16 11:29:55;;;;;;;6.80;2.92;;;;;;;;;;5033573;28;20021;-76
2021/08/16 11:32:24;;;;;;;9.15;3.13;;;;;;;;;;5015662;28;20029;-75
2021/08/16 11:34:54;;;;;;;6.03;2.55;;;;;;;;;;5033547;28;20103;-73
2021/08/16 11:37:20;;;;;;;6.65;2.90;;;;;;;;;;5033541;28;20022;-74
2021/08/16 11:39:48;;;;;;;6.05;2.83;;;;;;;;;;5033375;28;20025;-75
2021/08/16 11:42:14;;;;;;;10.18;3.00;;;;;;;;;;5015717;28;20021;-74
2021/08/16 11:44:40;;;;;;;6.80;2.97;;;;;;;;;;5033934;28;20025;-74
2021/08/16 11:47:07;;;;;;;9.73;3.13;;;;;;;;;;5033335;28;20026;-76
2021/08/16 11:49:37;;;;;;;8.25;3.10;;;;;;;;;;5033339;28;20045;-74
2021/08/16 11:52:05;;;;;;;8.07;2.85;;;;;;;;;;5033623;28;20029;-75
2021/08/16 11:54:35;;;;;;;7.07;3.08;;;;;;;;;;5033269;28;20075;-76
2021/08/16 11:57:03;;;;;;;6.70;3.05;;;;;;;;;;5034085;28;20029;-73
2021/08/16 11:59:29;;;;;;;7.75;3.05;;;;;;;;;;5033492;28;20048;-76
2021/08/16 12:01:57;;;;;;;8.98;3.10;;;;;;;;;;5033078;28;20397;-75
2021/08/16 12:04:23;;;;;;;10.20;3.13;;;;;;;;;;5033478;28;20018;-74
2021/08/16 12:06:50;;;;;;;6.97;3.15;;;;;;;;;;5033435;28;20104;-75
2021/08/16 12:09:16;;;;;;;8.52;3.17;;;;;;;;;;5032905;28;20092;-76
2021/08/16 12:11:43;;;;;;;8.35;3.53;;;;;;;;;;5033053;28;20079;-74
2021/08/16 12:14:09;;;;;;;8.15;3.20;;;;;;;;;;5033071;28;20389;-75
2021/08/16 12:16:37;;;;;;;8.95;3.75;;;;;;;;;;5033270;28;20495;-73
2021/08/16 12:19:04;;;;;;;7.00;3.53;;;;;;;;;;5037110;28;20025;-74
2021/08/16 12:21:30;;;;;;;9.43;3.53;;;;;;;;;;5036974;28;20037;-74
2021/08/16 12:24:03;;;;;;;10.85;3.72;;;;;;;;;;5037131;28;20048;-76
2021/08/16 12:26:32;;;;;;;8.55;3.97;;;;;;;;;;5018962;28;20048;-76
2021/08/16 12:28:58;;;;;;;9.77;3.53;;;;;;;;;;5019719;28;20112;-73
2021/08/16 12:31:25;;;;;;;10.73;4.25;;;;;;;;;;5037029;28;20057;-74
2021/08/16 12:33:51;;;;;;;8.55;4.28;;;;;;;;;;5019364;28;20374;-73
2021/08/16 12:36:22;;;;;;;10.52;3.97;;;;;;;;;;5036750;28;20032;-78
2021/08/16 12:38:53;;;;;;;5.97;3.47;;;;;;;;;;5037339;28;20477;-74
2021/08/16 12:41:23;;;;;;;7.18;3.47;;;;;;;;;;5037086;28;20484;-73
2021/08/16 12:43:49;;;;;;;10.02;3.72;;;;;;;;;;5036641;28;20540;-73
2021/08/16 12:46:15;;;;;;;7.72;4.03;;;;;;;;;;5036576;28;20022;-74
2021/08/16 12:48:42;;;;;;;11.05;4.45;;;;;;;;;;5036523;28;20053;-74
2021/08/16 12:51:08;;;;;;;9.98;4.45;;;;;;;;;;5036510;28;20093;-74
2021/08/16 12:53:36;;;;;;;9.07;4.43;;;;;;;;;;5036449;28;20112;-74
2021/08/16 12:56:02;;;;;;;8.23;4.70;;;;;;;;;;5036912;28;20026;-74
2021/08/16 12:58:28;;;;;;;9.82;4.15;;;;;;;;;;5036351;28;20029;-73
2021/08/16 13:00:54;;;;;;;10.57;4.75;;;;;;;;;;5036788;28;20036;-75
2021/08/16 13:03:20;;;;;;;10.73;5.18;;;;;;;;;;5036285;28;20424;-76
2021/08/16 13:05:46;;;;;;;9.70;4.82;;;;;;;;;;5036501;28;20025;-77
2021/08/16 13:08:12;;;;;;;9.88;4.88;;;;;;;;;;5036380;28;20032;-78
2021/08/16 13:10:38;;;;;;;11.50;5.40;;;;;;;;;;5018215;28;20041;-75
2021/08/16 13:13:05;;;;;;;11.68;5.60;;;;;;;;;;5036086;28;20075;-79
2021/08/16 13:15:31;;;;;;;9.30;5.65;;;;;;;;;;5036550;28;20474;-74
2021/08/16 13:17:57;;;;;;;10.35;5.63;;;;;;;;;;5036013;28;20033;-74
2021/08/16 13:20:23;;;;;;;11.48;5.75;;;;;;;;;;5035884;28;20033;-75
2021/08/16 13:22:49;;;;;;;11.43;5.93;;;;;;;;;;5035929;28;20026;-75
2021/08/16 13:25:15;;;;;;;15.70;6.30;;;;;;;;;;5035880;28;20493;-75
2021/08/16 13:27:42;;;;;;;12.48;6.05;;;;;;;;;;5035905;28;20022;-81
2021/08/16 13:30:09;;;;;;;12.00;6.50;;;;;;;;;;5034953;28;20033;-77
2021/08/16 13:32:35;;;;;;;13.88;6.28;;;;;;;;;;5036324;28;20021;-73
2021/08/16 13:35:01;;;;;;;13.15;7.03;;;;;;;;;;5036226;28;20064;-74
2021/08/16 13:37:27;;;;;;;13.70;6.57;;;;;;;;;;5035722;28;20076;-75
2021/08/16 13:39:53;;;;;;;12.02;7.03;;;;;;;;;;5035842;28;20064;-77
2021/08/16 13:42:21;;;;;;;12.23;6.50;;;;;;;;;;5035544;28;20108;-75
2021/08/16 13:44:47;;;;;;;10.00;6.22;;;;;;;;;;5017778;28;20038;-74
2021/08/16 13:47:13;;;;;;;15.15;7.32;;;;;;;;;;5034551;28;20032;-75
2021/08/16 13:49:39;;;;;;;11.93;6.88;;;;;;;;;;5034876;28;20432;-75
2021/08/16 13:52:06;;;;;;;13.68;7.93;;;;;;;;;;5035395;28;20025;-75
2021/08/16 13:54:32;;;;;;;12.23;7.65;;;;;;;;;;5018138;28;20087;-76
2021/08/16 13:56:58;;;;;;;19.75;10.48;;;;;;;;;;5017561;28;20025;-75
2021/08/16 13:59:24;;;;;;;20.02;10.45;;;;;;;;;;5035454;28;20428;-74
2021/08/16 14:01:53;;;;;;;15.90;10.05;;;;;;;;;;5035082;28;20029;-76
2021/08/16 14:04:19;;;;;;;15.95;9.68;;;;;;;;;;5035122;28;20022;-75
2021/08/16 14:06:45;;;;;;;14.80;9.45;;;;;;;;;;5017295;28;20417;-74
2021/08/16 14:09:12;;;;;;;17.45;10.50;;;;;;;;;;5034981;28;20111;-75
2021/08/16 14:11:39;;;;;;;15.98;10.85;;;;;;;;;;5035174;28;20044;-75
2021/08/16 14:14:05;;;;;;;17.27;10.30;;;;;;;;;;5017057;28;20496;-77
2021/08/16 14:16:31;;;;;;;15.80;9.98;;;;;;;;;;5034887;28;20044;-75
2021/08/16 14:18:57;;;;;;;15.75;10.05;;;;;;;;;;5035163;28;20029;-75
2021/08/16 14:21:23;;;;;;;17.27;9.25;;;;;;;;;;5034729;28;20029;-75
2021/08/16 14:23:49;;;;;;;15.18;9.75;;;;;;;;;;5034804;28;20029;-75
2021/08/16 14:26:15;;;;;;;17.15;10.00;;;;;;;;;;5034866;28;20022;-78
2021/08/16 14:28:42;;;;;;;16.98;10.13;;;;;;;;;;5034649;28;20101;-76
2021/08/16 14:31:08;;;;;;;16.48;10.27;;;;;;;;;;5034881;28;20025;-75
2021/08/16 14:33:34;;;;;;;18.83;10.80;;;;;;;;;;5034607;28;20071;-75
2021/08/16 14:36:01;;;;;;;18.65;11.35;;;;;;;;;;5034584;28;20397;-75
2021/08/16 14:38:27;;;;;;;17.35;11.10;;;;;;;;;;5016753;28;20440;-74
2021/08/16 14:40:53;;;;;;;17.48;11.38;;;;;;;;;;5033857;28;20034;-76
2021/08/16 14:43:19;;;;;;;19.63;10.48;;;;;;;;;;5034609;28;20025;-75